sensor_id;sensor_type;location;lat;lon;timestamp;temperature;humidity
61201;DHT22;47065;52.898;6.992;2022-07-29T00:49:49;14.20;99.90
61201;DHT22;47065;52.898;6.992;2022-07-29T00:52:15;14.20;99.90
61201;DHT22;47065;52.898;6.992;2022-07-29T00:54:41;14.20;99.90
61201;DHT22;47065;52.898;6.992;2022-07-29T00:57:07;14.20;99.90
61201;DHT22;47065;52.898;6.992;2022-07-29T00:59:34;14.20;99.90
61201;DHT22;47065;52.898;6.992;2022-07-29T01:02:00;14.10;99.90
61201;DHT22;47065;52.898;6.992;2022-07-29T01:04:26;14.20;99.90
61201;DHT22;47065;52.898;6.992;2022-07-29T01:06:53;14.20;99.90
61201;DHT22;47065;52.898;6.992;2022-07-29T01:09:20;14.10;99.90
61201;DHT22;47065;52.898;6.992;2022-07-29T01:11:46;14.10;99.90
61201;DHT22;47065;52.898;6.992;2022-07-29T01:14:14;14.10;99.90
61201;DHT22;47065;52.898;6.992;2022-07-29T01:17:33;14.10;99.90
61201;DHT22;47065;52.898;6.992;2022-07-29T01:19:48;14.10;99.90
61201;DHT22;47065;52.898;6.992;2022-07-29T01:22:54;14.10;99.90
61201;DHT22;47065;52.898;6.992;2022-07-29T01:28:28;14.10;99.90
61201;DHT22;47065;52.898;6.992;2022-07-29T01:30:56;14.10;99.90
61201;DHT22;47065;52.898;6.992;2022-07-29T01:33:25;14.10;99.90
61201;DHT22;47065;52.898;6.992;2022-07-29T01:36:13;14.10;99.90
61201;DHT22;47065;52.898;6.992;2022-07-29T01:38:42;14.10;99.90
61201;DHT22;47065;52.898;6.992;2022-07-29T01:41:15;14.10;99.90
61201;DHT22;47065;52.898;6.992;2022-07-29T01:43:50;14.10;99.90
61201;DHT22;47065;52.898;6.992;2022-07-29T01:46:33;14.10;99.90
61201;DHT22;47065;52.898;6.992;2022-07-29T01:49:11;14.10;99.90
61201;DHT22;47065;52.898;6.992;2022-07-29T01:51:49;14.10;99.90
61201;DHT22;47065;52.898;6.992;2022-07-29T01:54:42;14.10;99.90
61201;DHT22;47065;52.898;6.992;2022-07-29T01:57:09;14.10;99.90
61201;DHT22;47065;52.898;6.992;2022-07-29T01:59:37;14.10;99.90
61201;DHT22;47065;52.898;6.992;2022-07-29T02:02:04;14.10;99.90
61201;DHT22;47065;52.898;6.992;2022-07-29T02:04:32;14.10;99.90
61201;DHT22;47065;52.898;6.992;2022-07-29T02:07:02;14.00;99.90
61201;DHT22;47065;52.898;6.992;2022-07-29T02:09:28;14.10;99.90
61201;DHT22;47065;52.898;6.992;2022-07-29T02:11:56;14.00;99.90
61201;DHT22;47065;52.898;6.992;2022-07-29T02:14:23;14.00;99.90
61201;DHT22;47065;52.898;6.992;2022-07-29T02:16:53;14.10;99.90
61201;DHT22;47065;52.898;6.992;2022-07-29T02:19:21;14.10;99.90
61201;DHT22;47065;52.898;6.992;2022-07-29T02:21:49;14.10;99.90
61201;DHT22;47065;52.898;6.992;2022-07-29T02:24:16;14.10;99.90
61201;DHT22;47065;52.898;6.992;2022-07-29T02:26:43;14.00;99.90
61201;DHT22;47065;52.898;6.992;2022-07-29T02:29:10;14.00;99.90
61201;DHT22;47065;52.898;6.992;2022-07-29T02:31:38;14.10;99.90
61201;DHT22;47065;52.898;6.992;2022-07-29T02:34:06;14.00;99.90
61201;DHT22;47065;52.898;6.992;2022-07-29T02:36:33;14.00;99.90
61201;DHT22;47065;52.898;6.992;2022-07-29T02:39:00;14.00;99.90
61201;DHT22;47065;52.898;6.992;2022-07-29T02:41:41;14.00;99.90
61201;DHT22;47065;52.898;6.992;2022-07-29T02:44:12;14.10;99.90
61201;DHT22;47065;52.898;6.992;2022-07-29T02:46:48;14.00;99.90
61201;DHT22;47065;52.898;6.992;2022-07-29T02:51:51;14.00;99.90
61201;DHT22;47065;52.898;6.992;2022-07-29T02:54:38;14.00;99.90
61201;DHT22;47065;52.898;6.992;2022-07-29T02:57:11;14.00;99.90
61201;DHT22;47065;52.898;6.992;2022-07-29T02:59:38;14.00;99.90
61201;DHT22;47065;52.898;6.992;2022-07-29T03:02:08;14.00;99.90
61201;DHT22;47065;52.898;6.992;2022-07-29T03:04:35;14.00;99.90
61201;DHT22;47065;52.898;6.992;2022-07-29T03:07:04;14.00;99.90
61201;DHT22;47065;52.898;6.992;2022-07-29T03:09:30;14.00;99.90
61201;DHT22;47065;52.898;6.992;2022-07-29T03:11:57;14.00;99.90
61201;DHT22;47065;52.898;6.992;2022-07-29T03:14:23;14.00;99.90
61201;DHT22;47065;52.898;6.992;2022-07-29T03:16:49;14.00;99.90
61201;DHT22;47065;52.898;6.992;2022-07-29T03:19:17;14.00;99.90
61201;DHT22;47065;52.898;6.992;2022-07-29T03:21:42;14.00;99.90
61201;DHT22;47065;52.898;6.992;2022-07-29T03:24:08;14.00;99.90
61201;DHT22;47065;52.898;6.992;2022-07-29T03:26:34;14.10;99.90
61201;DHT22;47065;52.898;6.992;2022-07-29T03:28:59;14.00;99.90
61201;DHT22;47065;52.898;6.992;2022-07-29T03:31:25;14.00;99.90
61201;DHT22;47065;52.898;6.992;2022-07-29T03:33:51;14.00;99.90
61201;DHT22;47065;52.898;6.992;2022-07-29T03:36:16;14.00;99.90
61201;DHT22;47065;52.898;6.992;2022-07-29T03:38:43;14.00;99.90
61201;DHT22;47065;52.898;6.992;2022-07-29T03:41:10;14.10;99.90
61201;DHT22;47065;52.898;6.992;2022-07-29T03:43:38;14.10;99.90
61201;DHT22;47065;52.898;6.992;2022-07-29T03:46:07;14.10;99.90
61201;DHT22;47065;52.898;6.992;2022-07-29T03:48:37;14.10;99.90
61201;DHT22;47065;52.898;6.992;2022-07-29T03:51:05;14.10;99.90
61201;DHT22;47065;52.898;6.992;2022-07-29T03:53:31;14.10;99.90
61201;DHT22;47065;52.898;6.992;2022-07-29T03:55:59;14.10;99.90
61201;DHT22;47065;52.898;6.992;2022-07-29T03:58:28;14.10;99.90
61201;DHT22;47065;52.898;6.992;2022-07-29T04:00:55;14.00;99.90
61201;DHT22;47065;52.898;6.992;2022-07-29T04:03:22;14.00;99.90
61201;DHT22;47065;52.898;6.992;2022-07-29T04:06:02;14.10;99.90
61201;DHT22;47065;52.898;6.992;2022-07-29T04:08:28;14.10;99.90
61201;DHT22;47065;52.898;6.992;2022-07-29T04:10:53;14.10;99.90
61201;DHT22;47065;52.898;6.992;2022-07-29T04:13:20;14.10;99.90
61201;DHT22;47065;52.898;6.992;2022-07-29T04:15:46;14.10;99.90
61201;DHT22;47065;52.898;6.992;2022-07-29T04:18:11;14.10;99.90
61201;DHT22;47065;52.898;6.992;2022-07-29T04:20:37;14.10;99.90
61201;DHT22;47065;52.898;6.992;2022-07-29T04:23:02;14.10;99.90
61201;DHT22;47065;52.898;6.992;2022-07-29T04:25:28;14.10;99.90
61201;DHT22;47065;52.898;6.992;2022-07-29T04:27:54;14.10;99.90
61201;DHT22;47065;52.898;6.992;2022-07-29T04:30:25;14.10;99.90
61201;DHT22;47065;52.898;6.992;2022-07-29T04:32:51;14.10;99.90
61201;DHT22;47065;52.898;6.992;2022-07-29T04:35:16;14.10;99.90
61201;DHT22;47065;52.898;6.992;2022-07-29T04:37:42;14.10;99.90
61201;DHT22;47065;52.898;6.992;2022-07-29T04:40:08;14.20;99.90
61201;DHT22;47065;52.898;6.992;2022-07-29T04:42:33;14.20;99.90
61201;DHT22;47065;52.898;6.992;2022-07-29T04:44:59;14.20;99.90
61201;DHT22;47065;52.898;6.992;2022-07-29T04:47:24;14.20;99.90
61201;DHT22;47065;52.898;6.992;2022-07-29T04:49:50;14.20;99.90
61201;DHT22;47065;52.898;6.992;2022-07-29T04:52:16;14.30;99.90
61201;DHT22;47065;52.898;6.992;2022-07-29T04:54:41;14.30;99.90
61201;DHT22;47065;52.898;6.992;2022-07-29T04:57:07;14.30;99.90
61201;DHT22;47065;52.898;6.992;2022-07-29T04:59:32;14.30;99.90
61201;DHT22;47065;52.898;6.992;2022-07-29T05:01:58;14.40;99.90
61201;DHT22;47065;52.898;6.992;2022-07-29T05:04:24;14.40;99.90
61201;DHT22;47065;52.898;6.992;2022-07-29T05:06:49;14.40;99.90
61201;DHT22;47065;52.898;6.992;2022-07-29T05:09:15;14.50;99.90
61201;DHT22;47065;52.898;6.992;2022-07-29T05:11:40;14.40;99.90
61201;DHT22;47065;52.898;6.992;2022-07-29T05:14:06;14.50;99.90
61201;DHT22;47065;52.898;6.992;2022-07-29T05:16:31;14.60;99.90
61201;DHT22;47065;52.898;6.992;2022-07-29T05:18:57;14.60;99.90
61201;DHT22;47065;52.898;6.992;2022-07-29T05:21:23;14.70;99.90
61201;DHT22;47065;52.898;6.992;2022-07-29T05:23:48;14.70;99.90
61201;DHT22;47065;52.898;6.992;2022-07-29T05:26:14;14.70;99.90
61201;DHT22;47065;52.898;6.992;2022-07-29T05:28:39;14.80;99.90
61201;DHT22;47065;52.898;6.992;2022-07-29T05:31:05;14.80;99.90
61201;DHT22;47065;52.898;6.992;2022-07-29T05:33:30;14.90;99.90
61201;DHT22;47065;52.898;6.992;2022-07-29T05:35:57;15.00;99.90
61201;DHT22;47065;52.898;6.992;2022-07-29T05:38:22;15.00;99.90
61201;DHT22;47065;52.898;6.992;2022-07-29T05:40:48;15.10;99.90
61201;DHT22;47065;52.898;6.992;2022-07-29T05:43:14;15.10;99.90
61201;DHT22;47065;52.898;6.992;2022-07-29T05:45:39;15.10;99.90
61201;DHT22;47065;52.898;6.992;2022-07-29T05:48:05;15.20;99.90
61201;DHT22;47065;52.898;6.992;2022-07-29T05:50:30;15.20;99.90
61201;DHT22;47065;52.898;6.992;2022-07-29T05:52:56;15.30;99.90
61201;DHT22;47065;52.898;6.992;2022-07-29T05:55:22;15.30;99.90
61201;DHT22;47065;52.898;6.992;2022-07-29T05:57:47;15.30;99.90
61201;DHT22;47065;52.898;6.992;2022-07-29T06:00:13;15.40;99.90
61201;DHT22;47065;52.898;6.992;2022-07-29T06:02:39;15.40;99.90
61201;DHT22;47065;52.898;6.992;2022-07-29T06:05:04;15.40;99.90
61201;DHT22;47065;52.898;6.992;2022-07-29T06:07:30;15.40;99.90
61201;DHT22;47065;52.898;6.992;2022-07-29T06:09:57;15.50;99.90
61201;DHT22;47065;52.898;6.992;2022-07-29T06:12:23;15.50;99.90
61201;DHT22;47065;52.898;6.992;2022-07-29T06:14:49;15.50;99.90
61201;DHT22;47065;52.898;6.992;2022-07-29T06:17:16;15.50;99.90
61201;DHT22;47065;52.898;6.992;2022-07-29T06:19:41;15.50;99.90
61201;DHT22;47065;52.898;6.992;2022-07-29T06:22:07;15.50;99.90
61201;DHT22;47065;52.898;6.992;2022-07-29T06:24:33;15.50;99.90
61201;DHT22;47065;52.898;6.992;2022-07-29T06:26:59;15.60;99.90
61201;DHT22;47065;52.898;6.992;2022-07-29T06:29:24;15.70;99.90
61201;DHT22;47065;52.898;6.992;2022-07-29T06:31:50;15.70;99.90
61201;DHT22;47065;52.898;6.992;2022-07-29T06:34:15;15.70;99.90
61201;DHT22;47065;52.898;6.992;2022-07-29T06:36:41;15.70;99.90
61201;DHT22;47065;52.898;6.992;2022-07-29T06:39:07;15.80;99.90
61201;DHT22;47065;52.898;6.992;2022-07-29T06:41:33;15.80;99.90
61201;DHT22;47065;52.898;6.992;2022-07-29T06:43:59;15.90;99.90
61201;DHT22;47065;52.898;6.992;2022-07-29T06:46:26;16.00;99.90
61201;DHT22;47065;52.898;6.992;2022-07-29T06:48:53;16.00;99.90
61201;DHT22;47065;52.898;6.992;2022-07-29T06:51:19;16.00;99.90
61201;DHT22;47065;52.898;6.992;2022-07-29T06:53:44;16.10;99.90
61201;DHT22;47065;52.898;6.992;2022-07-29T06:56:10;16.10;99.90
61201;DHT22;47065;52.898;6.992;2022-07-29T06:58:38;16.10;99.90
61201;DHT22;47065;52.898;6.992;2022-07-29T07:01:05;16.20;99.90
61201;DHT22;47065;52.898;6.992;2022-07-29T07:03:31;16.20;99.90
61201;DHT22;47065;52.898;6.992;2022-07-29T07:05:57;16.30;99.90
61201;DHT22;47065;52.898;6.992;2022-07-29T07:08:23;16.30;99.90
61201;DHT22;47065;52.898;6.992;2022-07-29T07:10:50;16.40;99.90
61201;DHT22;47065;52.898;6.992;2022-07-29T07:13:15;16.40;99.90
61201;DHT22;47065;52.898;6.992;2022-07-29T07:15:43;16.50;99.90
61201;DHT22;47065;52.898;6.992;2022-07-29T07:18:09;16.60;99.90
61201;DHT22;47065;52.898;6.992;2022-07-29T07:20:35;16.60;99.90
61201;DHT22;47065;52.898;6.992;2022-07-29T07:23:01;16.70;99.90
61201;DHT22;47065;52.898;6.992;2022-07-29T07:25:27;16.80;99.90
61201;DHT22;47065;52.898;6.992;2022-07-29T07:27:52;16.80;99.90
61201;DHT22;47065;52.898;6.992;2022-07-29T07:30:18;16.90;99.90
61201;DHT22;47065;52.898;6.992;2022-07-29T07:32:44;16.90;99.90
61201;DHT22;47065;52.898;6.992;2022-07-29T07:35:10;17.00;99.90
61201;DHT22;47065;52.898;6.992;2022-07-29T07:37:36;17.00;99.90
61201;DHT22;47065;52.898;6.992;2022-07-29T07:40:03;17.10;99.90
61201;DHT22;47065;52.898;6.992;2022-07-29T07:42:29;17.10;99.90
61201;DHT22;47065;52.898;6.992;2022-07-29T07:44:54;17.20;99.90
61201;DHT22;47065;52.898;6.992;2022-07-29T07:47:20;17.20;99.70
61201;DHT22;47065;52.898;6.992;2022-07-29T07:49:50;17.20;99.50
61201;DHT22;47065;52.898;6.992;2022-07-29T07:52:17;17.20;99.30
61201;DHT22;47065;52.898;6.992;2022-07-29T07:54:43;17.30;99.50
61201;DHT22;47065;52.898;6.992;2022-07-29T07:57:11;17.40;99.30
61201;DHT22;47065;52.898;6.992;2022-07-29T07:59:36;17.50;99.10
61201;DHT22;47065;52.898;6.992;2022-07-29T08:02:02;17.50;99.10
61201;DHT22;47065;52.898;6.992;2022-07-29T08:04:28;17.60;98.90
61201;DHT22;47065;52.898;6.992;2022-07-29T08:06:55;17.80;98.80
61201;DHT22;47065;52.898;6.992;2022-07-29T08:09:21;17.90;98.80
61201;DHT22;47065;52.898;6.992;2022-07-29T08:11:47;18.00;98.30
61201;DHT22;47065;52.898;6.992;2022-07-29T08:14:13;18.10;98.20
61201;DHT22;47065;52.898;6.992;2022-07-29T08:16:39;18.30;98.30
61201;DHT22;47065;52.898;6.992;2022-07-29T08:19:06;18.40;98.10
61201;DHT22;47065;52.898;6.992;2022-07-29T08:21:31;18.40;97.50
61201;DHT22;47065;52.898;6.992;2022-07-29T08:23:57;18.50;97.50
61201;DHT22;47065;52.898;6.992;2022-07-29T08:26:42;18.60;97.30
61201;DHT22;47065;52.898;6.992;2022-07-29T08:29:08;18.70;96.70
61201;DHT22;47065;52.898;6.992;2022-07-29T08:31:35;18.80;96.70
61201;DHT22;47065;52.898;6.992;2022-07-29T08:34:01;18.80;96.50
61201;DHT22;47065;52.898;6.992;2022-07-29T08:36:27;18.90;96.10
61201;DHT22;47065;52.898;6.992;2022-07-29T08:38:53;19.00;96.20
61201;DHT22;47065;52.898;6.992;2022-07-29T08:41:19;19.00;95.90
61201;DHT22;47065;52.898;6.992;2022-07-29T08:43:46;19.10;96.00
61201;DHT22;47065;52.898;6.992;2022-07-29T08:46:12;19.20;95.80
61201;DHT22;47065;52.898;6.992;2022-07-29T08:48:38;19.30;95.70
61201;DHT22;47065;52.898;6.992;2022-07-29T08:51:05;19.40;95.40
61201;DHT22;47065;52.898;6.992;2022-07-29T08:53:32;19.50;95.10
61201;DHT22;47065;52.898;6.992;2022-07-29T08:55:58;19.50;95.20
61201;DHT22;47065;52.898;6.992;2022-07-29T08:58:25;19.50;94.60
61201;DHT22;47065;52.898;6.992;2022-07-29T09:00:53;19.60;94.70
61201;DHT22;47065;52.898;6.992;2022-07-29T09:03:20;19.60;94.40
61201;DHT22;47065;52.898;6.992;2022-07-29T09:05:48;19.70;94.10
61201;DHT22;47065;52.898;6.992;2022-07-29T09:08:14;19.60;93.90
61201;DHT22;47065;52.898;6.992;2022-07-29T09:10:41;19.70;93.70
61201;DHT22;47065;52.898;6.992;2022-07-29T09:13:07;19.70;93.80
61201;DHT22;47065;52.898;6.992;2022-07-29T09:15:33;19.80;93.80
61201;DHT22;47065;52.898;6.992;2022-07-29T09:17:58;19.80;93.70
61201;DHT22;47065;52.898;6.992;2022-07-29T09:20:25;19.90;93.60
61201;DHT22;47065;52.898;6.992;2022-07-29T09:22:52;19.90;93.70
61201;DHT22;47065;52.898;6.992;2022-07-29T09:25:35;20.00;93.60
61201;DHT22;47065;52.898;6.992;2022-07-29T09:28:12;20.00;92.80
61201;DHT22;47065;52.898;6.992;2022-07-29T09:30:51;20.10;93.20
61201;DHT22;47065;52.898;6.992;2022-07-29T09:33:18;20.30;93.50
61201;DHT22;47065;52.898;6.992;2022-07-29T09:35:44;20.40;93.70
61201;DHT22;47065;52.898;6.992;2022-07-29T09:38:13;20.60;93.40
61201;DHT22;47065;52.898;6.992;2022-07-29T09:40:39;20.80;93.10
61201;DHT22;47065;52.898;6.992;2022-07-29T09:43:12;21.00;92.80
61201;DHT22;47065;52.898;6.992;2022-07-29T09:45:39;21.30;93.00
61201;DHT22;47065;52.898;6.992;2022-07-29T09:50:42;22.00;92.00
61201;DHT22;47065;52.898;6.992;2022-07-29T09:53:09;22.10;91.60
61201;DHT22;47065;52.898;6.992;2022-07-29T09:55:51;22.30;91.40
61201;DHT22;47065;52.898;6.992;2022-07-29T09:58:18;22.30;90.90
61201;DHT22;47065;52.898;6.992;2022-07-29T10:00:46;22.40;90.70
61201;DHT22;47065;52.898;6.992;2022-07-29T10:03:13;22.50;90.20
61201;DHT22;47065;52.898;6.992;2022-07-29T10:05:39;22.50;89.90
61201;DHT22;47065;52.898;6.992;2022-07-29T10:08:06;22.50;90.10
61201;DHT22;47065;52.898;6.992;2022-07-29T10:10:37;22.40;89.00
61201;DHT22;47065;52.898;6.992;2022-07-29T10:13:14;22.30;88.50
61201;DHT22;47065;52.898;6.992;2022-07-29T10:15:44;22.10;89.10
61201;DHT22;47065;52.898;6.992;2022-07-29T10:18:14;22.00;89.00
61201;DHT22;47065;52.898;6.992;2022-07-29T10:20:42;21.90;88.90
61201;DHT22;47065;52.898;6.992;2022-07-29T10:23:08;21.80;88.70
61201;DHT22;47065;52.898;6.992;2022-07-29T10:25:34;21.60;89.60
61201;DHT22;47065;52.898;6.992;2022-07-29T10:28:00;21.50;89.70
61201;DHT22;47065;52.898;6.992;2022-07-29T10:30:26;21.50;89.90
61201;DHT22;47065;52.898;6.992;2022-07-29T10:44:20;21.20;90.60
61201;DHT22;47065;52.898;6.992;2022-07-29T10:46:46;21.20;90.60
61201;DHT22;47065;52.898;6.992;2022-07-29T10:49:19;21.10;90.60
61201;DHT22;47065;52.898;6.992;2022-07-29T10:52:04;21.10;90.60
61201;DHT22;47065;52.898;6.992;2022-07-29T10:54:37;21.10;90.50
61201;DHT22;47065;52.898;6.992;2022-07-29T10:59:42;21.10;90.40
61201;DHT22;47065;52.898;6.992;2022-07-29T11:07:29;21.00;91.20
61201;DHT22;47065;52.898;6.992;2022-07-29T11:15:22;20.80;91.90
61201;DHT22;47065;52.898;6.992;2022-07-29T11:22:56;20.80;93.10
61201;DHT22;47065;52.898;6.992;2022-07-29T11:25:22;20.80;93.50
61201;DHT22;47065;52.898;6.992;2022-07-29T11:27:47;20.80;93.80
61201;DHT22;47065;52.898;6.992;2022-07-29T11:30:13;20.80;93.90
61201;DHT22;47065;52.898;6.992;2022-07-29T11:32:41;20.80;94.40
61201;DHT22;47065;52.898;6.992;2022-07-29T11:35:15;20.80;94.40
61201;DHT22;47065;52.898;6.992;2022-07-29T11:37:41;20.80;94.40
61201;DHT22;47065;52.898;6.992;2022-07-29T11:45:13;20.80;95.00
61201;DHT22;47065;52.898;6.992;2022-07-29T11:47:59;20.90;95.10
61201;DHT22;47065;52.898;6.992;2022-07-29T11:50:33;20.90;94.50
61201;DHT22;47065;52.898;6.992;2022-07-29T11:53:00;20.90;94.60
61201;DHT22;47065;52.898;6.992;2022-07-29T11:55:27;20.90;94.60
61201;DHT22;47065;52.898;6.992;2022-07-29T11:57:53;20.80;94.40
61201;DHT22;47065;52.898;6.992;2022-07-29T12:02:50;20.80;94.40
61201;DHT22;47065;52.898;6.992;2022-07-29T12:05:17;20.80;94.50
61201;DHT22;47065;52.898;6.992;2022-07-29T12:07:42;20.90;94.60
61201;DHT22;47065;52.898;6.992;2022-07-29T12:10:08;20.90;94.80
61201;DHT22;47065;52.898;6.992;2022-07-29T12:12:34;20.90;95.20
61201;DHT22;47065;52.898;6.992;2022-07-29T12:15:18;21.00;95.20
61201;DHT22;47065;52.898;6.992;2022-07-29T12:17:46;21.00;94.50
61201;DHT22;47065;52.898;6.992;2022-07-29T12:20:13;21.00;94.10
61201;DHT22;47065;52.898;6.992;2022-07-29T12:22:40;21.10;94.00
61201;DHT22;47065;52.898;6.992;2022-07-29T12:25:10;21.00;94.10
61201;DHT22;47065;52.898;6.992;2022-07-29T12:27:36;21.10;93.90
61201;DHT22;47065;52.898;6.992;2022-07-29T12:30:08;21.10;93.60
61201;DHT22;47065;52.898;6.992;2022-07-29T12:32:36;21.10;93.60
61201;DHT22;47065;52.898;6.992;2022-07-29T12:35:04;21.20;93.50
61201;DHT22;47065;52.898;6.992;2022-07-29T12:37:32;21.20;93.70
61201;DHT22;47065;52.898;6.992;2022-07-29T12:39:58;21.20;93.60
61201;DHT22;47065;52.898;6.992;2022-07-29T12:42:23;21.20;93.40
61201;DHT22;47065;52.898;6.992;2022-07-29T12:44:50;21.30;93.20
61201;DHT22;47065;52.898;6.992;2022-07-29T12:47:18;21.30;92.80
61201;DHT22;47065;52.898;6.992;2022-07-29T12:49:45;21.30;92.50
61201;DHT22;47065;52.898;6.992;2022-07-29T12:52:31;21.30;92.70
61201;DHT22;47065;52.898;6.992;2022-07-29T12:54:57;21.30;92.80
61201;DHT22;47065;52.898;6.992;2022-07-29T12:57:23;21.40;92.90
61201;DHT22;47065;52.898;6.992;2022-07-29T13:00:22;21.40;93.20
61201;DHT22;47065;52.898;6.992;2022-07-29T13:02:58;21.40;92.80
61201;DHT22;47065;52.898;6.992;2022-07-29T13:05:44;21.30;93.20
61201;DHT22;47065;52.898;6.992;2022-07-29T13:08:11;21.30;93.50
61201;DHT22;47065;52.898;6.992;2022-07-29T13:10:37;21.30;93.60
61201;DHT22;47065;52.898;6.992;2022-07-29T13:13:03;21.40;93.80
61201;DHT22;47065;52.898;6.992;2022-07-29T13:15:30;21.40;94.00
61201;DHT22;47065;52.898;6.992;2022-07-29T13:17:56;21.40;94.10
61201;DHT22;47065;52.898;6.992;2022-07-29T13:20:25;21.40;94.20
61201;DHT22;47065;52.898;6.992;2022-07-29T13:22:52;21.40;94.30
61201;DHT22;47065;52.898;6.992;2022-07-29T13:25:30;21.40;94.30
61201;DHT22;47065;52.898;6.992;2022-07-29T13:27:58;21.40;94.40
61201;DHT22;47065;52.898;6.992;2022-07-29T13:30:24;21.50;94.50
61201;DHT22;47065;52.898;6.992;2022-07-29T13:32:51;21.60;94.70
61201;DHT22;47065;52.898;6.992;2022-07-29T13:35:17;21.70;94.70
61201;DHT22;47065;52.898;6.992;2022-07-29T13:37:44;21.90;94.70
61201;DHT22;47065;52.898;6.992;2022-07-29T13:40:10;22.10;94.90
61201;DHT22;47065;52.898;6.992;2022-07-29T13:42:36;22.30;95.10
61201;DHT22;47065;52.898;6.992;2022-07-29T13:45:03;22.50;94.80
61201;DHT22;47065;52.898;6.992;2022-07-29T13:47:30;22.70;94.60
61201;DHT22;47065;52.898;6.992;2022-07-29T13:49:55;22.80;94.20
61201;DHT22;47065;52.898;6.992;2022-07-29T13:52:21;23.00;93.40
61201;DHT22;47065;52.898;6.992;2022-07-29T13:54:47;23.10;93.30
61201;DHT22;47065;52.898;6.992;2022-07-29T13:57:13;23.20;92.70
61201;DHT22;47065;52.898;6.992;2022-07-29T13:59:40;23.20;92.50
61201;DHT22;47065;52.898;6.992;2022-07-29T14:02:08;23.20;92.10
61201;DHT22;47065;52.898;6.992;2022-07-29T14:04:35;23.20;91.60
61201;DHT22;47065;52.898;6.992;2022-07-29T14:07:01;23.30;91.00
61201;DHT22;47065;52.898;6.992;2022-07-29T14:09:27;23.20;91.20
61201;DHT22;47065;52.898;6.992;2022-07-29T14:11:53;23.30;90.90
61201;DHT22;47065;52.898;6.992;2022-07-29T14:14:19;23.20;90.90
61201;DHT22;47065;52.898;6.992;2022-07-29T14:16:45;23.30;90.60
61201;DHT22;47065;52.898;6.992;2022-07-29T14:19:10;23.30;90.10
61201;DHT22;47065;52.898;6.992;2022-07-29T14:21:37;23.30;88.80
61201;DHT22;47065;52.898;6.992;2022-07-29T14:24:03;23.30;89.10
61201;DHT22;47065;52.898;6.992;2022-07-29T14:26:31;23.20;89.30
61201;DHT22;47065;52.898;6.992;2022-07-29T14:28:57;23.10;88.90
61201;DHT22;47065;52.898;6.992;2022-07-29T14:31:23;23.10;88.90
61201;DHT22;47065;52.898;6.992;2022-07-29T14:33:48;23.10;88.90
61201;DHT22;47065;52.898;6.992;2022-07-29T14:36:14;23.10;89.60
61201;DHT22;47065;52.898;6.992;2022-07-29T14:38:40;23.10;89.40
61201;DHT22;47065;52.898;6.992;2022-07-29T14:41:07;23.10;88.70
61201;DHT22;47065;52.898;6.992;2022-07-29T14:43:33;23.10;89.00
61201;DHT22;47065;52.898;6.992;2022-07-29T14:46:00;23.10;89.70
61201;DHT22;47065;52.898;6.992;2022-07-29T14:48:26;23.10;89.80
61201;DHT22;47065;52.898;6.992;2022-07-29T14:50:51;23.10;89.40
61201;DHT22;47065;52.898;6.992;2022-07-29T14:53:17;23.20;88.80
61201;DHT22;47065;52.898;6.992;2022-07-29T14:55:44;23.30;88.60
61201;DHT22;47065;52.898;6.992;2022-07-29T14:58:10;23.30;88.00
61201;DHT22;47065;52.898;6.992;2022-07-29T15:00:36;23.30;87.80
61201;DHT22;47065;52.898;6.992;2022-07-29T15:03:03;23.40;86.70
61201;DHT22;47065;52.898;6.992;2022-07-29T15:05:31;23.40;85.80
61201;DHT22;47065;52.898;6.992;2022-07-29T15:07:58;23.30;85.60
61201;DHT22;47065;52.898;6.992;2022-07-29T15:10:24;23.30;85.20
61201;DHT22;47065;52.898;6.992;2022-07-29T15:12:52;23.20;85.30
61201;DHT22;47065;52.898;6.992;2022-07-29T15:15:18;23.20;84.70
61201;DHT22;47065;52.898;6.992;2022-07-29T15:17:43;23.10;85.10
61201;DHT22;47065;52.898;6.992;2022-07-29T15:20:09;23.00;85.60
61201;DHT22;47065;52.898;6.992;2022-07-29T15:22:36;22.90;86.30
61201;DHT22;47065;52.898;6.992;2022-07-29T15:25:04;22.80;86.60
61201;DHT22;47065;52.898;6.992;2022-07-29T15:27:29;22.70;87.00
61201;DHT22;47065;52.898;6.992;2022-07-29T15:29:56;22.70;87.60
61201;DHT22;47065;52.898;6.992;2022-07-29T15:32:22;22.60;88.30
61201;DHT22;47065;52.898;6.992;2022-07-29T15:34:48;22.60;88.60
61201;DHT22;47065;52.898;6.992;2022-07-29T15:37:13;22.50;88.60
61201;DHT22;47065;52.898;6.992;2022-07-29T15:39:41;22.60;89.40
61201;DHT22;47065;52.898;6.992;2022-07-29T15:42:07;22.70;89.50
61201;DHT22;47065;52.898;6.992;2022-07-29T15:44:36;22.80;88.40
61201;DHT22;47065;52.898;6.992;2022-07-29T15:47:02;22.90;87.30
61201;DHT22;47065;52.898;6.992;2022-07-29T15:49:28;23.10;86.90
61201;DHT22;47065;52.898;6.992;2022-07-29T15:52:02;23.30;87.60
61201;DHT22;47065;52.898;6.992;2022-07-29T15:54:28;23.40;87.60
61201;DHT22;47065;52.898;6.992;2022-07-29T15:56:55;23.60;86.60
61201;DHT22;47065;52.898;6.992;2022-07-29T15:59:21;23.80;85.10
61201;DHT22;47065;52.898;6.992;2022-07-29T16:01:47;24.00;83.70
61201;DHT22;47065;52.898;6.992;2022-07-29T16:04:13;24.30;81.40
61201;DHT22;47065;52.898;6.992;2022-07-29T16:06:39;24.60;79.80
61201;DHT22;47065;52.898;6.992;2022-07-29T16:09:05;24.80;79.40
61201;DHT22;47065;52.898;6.992;2022-07-29T16:11:30;24.90;78.80
61201;DHT22;47065;52.898;6.992;2022-07-29T16:13:57;24.80;77.30
61201;DHT22;47065;52.898;6.992;2022-07-29T16:16:22;24.70;77.70
61201;DHT22;47065;52.898;6.992;2022-07-29T16:18:48;24.70;77.70
61201;DHT22;47065;52.898;6.992;2022-07-29T16:21:14;24.70;75.80
61201;DHT22;47065;52.898;6.992;2022-07-29T16:23:39;24.70;76.40
61201;DHT22;47065;52.898;6.992;2022-07-29T16:26:06;24.70;76.90
61201;DHT22;47065;52.898;6.992;2022-07-29T16:28:32;24.60;77.20
61201;DHT22;47065;52.898;6.992;2022-07-29T16:30:58;24.60;77.10
61201;DHT22;47065;52.898;6.992;2022-07-29T16:33:24;24.60;78.00
61201;DHT22;47065;52.898;6.992;2022-07-29T16:35:50;24.60;79.90
61201;DHT22;47065;52.898;6.992;2022-07-29T16:38:15;24.60;79.00
61201;DHT22;47065;52.898;6.992;2022-07-29T16:40:43;24.70;78.20
61201;DHT22;47065;52.898;6.992;2022-07-29T16:43:09;24.70;77.00
61201;DHT22;47065;52.898;6.992;2022-07-29T16:45:35;24.70;77.10
61201;DHT22;47065;52.898;6.992;2022-07-29T16:48:01;24.60;76.90
61201;DHT22;47065;52.898;6.992;2022-07-29T16:50:28;24.60;77.00
61201;DHT22;47065;52.898;6.992;2022-07-29T16:52:54;24.70;77.60
61201;DHT22;47065;52.898;6.992;2022-07-29T16:55:20;24.70;77.90
61201;DHT22;47065;52.898;6.992;2022-07-29T16:57:46;24.80;78.50
61201;DHT22;47065;52.898;6.992;2022-07-29T17:00:13;24.80;78.30
61201;DHT22;47065;52.898;6.992;2022-07-29T17:02:38;24.70;78.00
61201;DHT22;47065;52.898;6.992;2022-07-29T17:05:06;24.80;77.60
61201;DHT22;47065;52.898;6.992;2022-07-29T17:07:32;24.70;77.40